sensor_id;sensor_type;location;lat;lon;timestamp;P1;durP1;ratioP1;P2;durP2;ratioP2
77524;SDS011;66638;50.050;21.124;2024-01-30T00:00:00;14.10;;;6.50;;
77524;SDS011;66638;50.050;21.124;2024-01-30T00:03:26;12.70;;;5.60;;
77524;SDS011;66638;50.050;21.124;2024-01-30T00:06:12;10.30;;;5.30;;
77524;SDS011;66638;50.050;21.124;2024-01-30T00:08:58;11.50;;;5.80;;
77524;SDS011;66638;50.050;21.124;2024-01-30T00:11:44;12.90;;;6.40;;
77524;SDS011;66638;50.050;21.124;2024-01-30T00:14:31;20.20;;;11.30;;
77524;SDS011;66638;50.050;21.124;2024-01-30T00:17:17;29.30;;;14.10;;
77524;SDS011;66638;50.050;21.124;2024-01-30T00:20:04;20.40;;;10.00;;
77524;SDS011;66638;50.050;21.124;2024-01-30T00:22:51;13.00;;;6.20;;
77524;SDS011;66638;50.050;21.124;2024-01-30T00:25:37;13.00;;;7.50;;
77524;SDS011;66638;50.050;21.124;2024-01-30T00:28:22;10.20;;;5.30;;
77524;SDS011;66638;50.050;21.124;2024-01-30T00:31:08;9.70;;;6.10;;
77524;SDS011;66638;50.050;21.124;2024-01-30T00:33:57;9.70;;;6.00;;
77524;SDS011;66638;50.050;21.124;2024-01-30T00:36:44;9.40;;;5.50;;
77524;SDS011;66638;50.050;21.124;2024-01-30T00:39:30;10.80;;;5.70;;
77524;SDS011;66638;50.050;21.124;2024-01-30T00:42:15;9.80;;;6.10;;
77524;SDS011;66638;50.050;21.124;2024-01-30T00:45:02;9.50;;;5.60;;
77524;SDS011;66638;50.050;21.124;2024-01-30T00:47:48;8.80;;;4.50;;
77524;SDS011;66638;50.050;21.124;2024-01-30T00:50:34;7.90;;;4.40;;
77524;SDS011;66638;50.050;21.124;2024-01-30T00:53:19;9.60;;;4.40;;
77524;SDS011;66638;50.050;21.124;2024-01-30T00:56:05;9.30;;;5.30;;
77524;SDS011;66638;50.050;21.124;2024-01-30T00:58:51;11.90;;;7.50;;
77524;SDS011;66638;50.050;21.124;2024-01-30T01:01:37;11.90;;;6.60;;
77524;SDS011;66638;50.050;21.124;2024-01-30T01:04:23;10.30;;;6.20;;
77524;SDS011;66638;50.050;21.124;2024-01-30T01:07:09;11.50;;;5.00;;
77524;SDS011;66638;50.050;21.124;2024-01-30T01:09:55;11.10;;;5.30;;
77524;SDS011;66638;50.050;21.124;2024-01-30T01:12:41;9.70;;;6.30;;
77524;SDS011;66638;50.050;21.124;2024-01-30T01:15:27;10.60;;;5.60;;
77524;SDS011;66638;50.050;21.124;2024-01-30T01:18:13;9.00;;;5.20;;
77524;SDS011;66638;50.050;21.124;2024-01-30T01:20:59;9.90;;;5.40;;
77524;SDS011;66638;50.050;21.124;2024-01-30T01:23:45;9.90;;;5.20;;
77524;SDS011;66638;50.050;21.124;2024-01-30T01:26:31;7.70;;;4.60;;
77524;SDS011;66638;50.050;21.124;2024-01-30T01:29:17;7.50;;;4.20;;
77524;SDS011;66638;50.050;21.124;2024-01-30T01:32:04;8.80;;;5.10;;
77524;SDS011;66638;50.050;21.124;2024-01-30T01:37:37;9.00;;;4.90;;
77524;SDS011;66638;50.050;21.124;2024-01-30T01:40:23;9.10;;;5.20;;
77524;SDS011;66638;50.050;21.124;2024-01-30T01:43:10;10.50;;;5.10;;
77524;SDS011;66638;50.050;21.124;2024-01-30T01:45:56;10.90;;;3.90;;
77524;SDS011;66638;50.050;21.124;2024-01-30T01:48:41;7.20;;;4.60;;
77524;SDS011;66638;50.050;21.124;2024-01-30T01:51:28;7.90;;;4.50;;
77524;SDS011;66638;50.050;21.124;2024-01-30T01:54:15;8.20;;;5.30;;
77524;SDS011;66638;50.050;21.124;2024-01-30T01:57:01;9.80;;;5.60;;
77524;SDS011;66638;50.050;21.124;2024-01-30T01:59:47;11.50;;;5.80;;
77524;SDS011;66638;50.050;21.124;2024-01-30T02:02:35;9.10;;;4.90;;
77524;SDS011;66638;50.050;21.124;2024-01-30T02:05:22;9.20;;;5.40;;
77524;SDS011;66638;50.050;21.124;2024-01-30T02:08:07;10.20;;;5.10;;
77524;SDS011;66638;50.050;21.124;2024-01-30T02:10:54;11.60;;;5.20;;
77524;SDS011;66638;50.050;21.124;2024-01-30T02:13:40;10.30;;;5.80;;
77524;SDS011;66638;50.050;21.124;2024-01-30T02:16:26;10.40;;;5.30;;
77524;SDS011;66638;50.050;21.124;2024-01-30T02:19:13;12.10;;;5.40;;
77524;SDS011;66638;50.050;21.124;2024-01-30T02:21:59;10.00;;;6.00;;
77524;SDS011;66638;50.050;21.124;2024-01-30T02:24:45;9.90;;;5.70;;
77524;SDS011;66638;50.050;21.124;2024-01-30T02:27:31;9.50;;;5.30;;
77524;SDS011;66638;50.050;21.124;2024-01-30T02:30:16;8.90;;;5.00;;
77524;SDS011;66638;50.050;21.124;2024-01-30T02:33:03;9.10;;;5.80;;
77524;SDS011;66638;50.050;21.124;2024-01-30T02:35:49;9.90;;;5.90;;
77524;SDS011;66638;50.050;21.124;2024-01-30T02:38:35;9.20;;;4.90;;
77524;SDS011;66638;50.050;21.124;2024-01-30T02:41:20;9.90;;;5.60;;
77524;SDS011;66638;50.050;21.124;2024-01-30T02:44:07;9.20;;;5.30;;
77524;SDS011;66638;50.050;21.124;2024-01-30T02:46:52;8.20;;;4.70;;
77524;SDS011;66638;50.050;21.124;2024-01-30T02:49:39;8.00;;;4.90;;
77524;SDS011;66638;50.050;21.124;2024-01-30T02:52:25;13.70;;;6.20;;
77524;SDS011;66638;50.050;21.124;2024-01-30T02:55:11;8.90;;;5.20;;
77524;SDS011;66638;50.050;21.124;2024-01-30T02:57:57;9.40;;;5.10;;
77524;SDS011;66638;50.050;21.124;2024-01-30T03:00:43;9.90;;;5.10;;
77524;SDS011;66638;50.050;21.124;2024-01-30T03:03:29;9.30;;;4.80;;
77524;SDS011;66638;50.050;21.124;2024-01-30T03:06:15;9.60;;;5.30;;
77524;SDS011;66638;50.050;21.124;2024-01-30T03:09:02;10.40;;;5.40;;
77524;SDS011;66638;50.050;21.124;2024-01-30T03:14:36;8.60;;;5.00;;
77524;SDS011;66638;50.050;21.124;2024-01-30T03:17:21;10.50;;;5.30;;
77524;SDS011;66638;50.050;21.124;2024-01-30T03:20:07;11.00;;;5.90;;
77524;SDS011;66638;50.050;21.124;2024-01-30T03:22:55;10.40;;;5.20;;
77524;SDS011;66638;50.050;21.124;2024-01-30T03:25:41;12.40;;;5.20;;
77524;SDS011;66638;50.050;21.124;2024-01-30T03:28:27;7.20;;;4.40;;
77524;SDS011;66638;50.050;21.124;2024-01-30T03:31:14;9.90;;;5.40;;
77524;SDS011;66638;50.050;21.124;2024-01-30T03:34:01;7.40;;;4.90;;
77524;SDS011;66638;50.050;21.124;2024-01-30T03:36:47;8.00;;;3.90;;
77524;SDS011;66638;50.050;21.124;2024-01-30T03:39:33;7.50;;;3.90;;
77524;SDS011;66638;50.050;21.124;2024-01-30T03:42:19;9.40;;;4.10;;
77524;SDS011;66638;50.050;21.124;2024-01-30T03:45:06;7.90;;;4.70;;
77524;SDS011;66638;50.050;21.124;2024-01-30T03:47:52;7.70;;;4.70;;
77524;SDS011;66638;50.050;21.124;2024-01-30T03:50:38;13.60;;;5.70;;
77524;SDS011;66638;50.050;21.124;2024-01-30T03:53:24;13.10;;;5.60;;
77524;SDS011;66638;50.050;21.124;2024-01-30T03:56:11;5.90;;;4.30;;
77524;SDS011;66638;50.050;21.124;2024-01-30T03:58:59;9.90;;;5.30;;
77524;SDS011;66638;50.050;21.124;2024-01-30T04:01:46;9.90;;;5.70;;
77524;SDS011;66638;50.050;21.124;2024-01-30T04:04:32;10.90;;;5.40;;
77524;SDS011;66638;50.050;21.124;2024-01-30T04:07:17;8.10;;;4.90;;
77524;SDS011;66638;50.050;21.124;2024-01-30T04:10:03;6.90;;;3.90;;
77524;SDS011;66638;50.050;21.124;2024-01-30T04:12:51;10.50;;;5.50;;
77524;SDS011;66638;50.050;21.124;2024-01-30T04:15:40;9.70;;;4.10;;
77524;SDS011;66638;50.050;21.124;2024-01-30T04:18:26;12.70;;;6.00;;
77524;SDS011;66638;50.050;21.124;2024-01-30T04:21:12;10.00;;;5.40;;
77524;SDS011;66638;50.050;21.124;2024-01-30T04:23:58;5.70;;;3.20;;
77524;SDS011;66638;50.050;21.124;2024-01-30T04:26:59;10.60;;;5.00;;
77524;SDS011;66638;50.050;21.124;2024-01-30T04:29:44;8.40;;;5.00;;
77524;SDS011;66638;50.050;21.124;2024-01-30T04:32:31;8.00;;;5.00;;
77524;SDS011;66638;50.050;21.124;2024-01-30T04:35:17;11.80;;;6.20;;
77524;SDS011;66638;50.050;21.124;2024-01-30T04:38:03;7.70;;;4.40;;
77524;SDS011;66638;50.050;21.124;2024-01-30T04:40:49;6.60;;;4.80;;
77524;SDS011;66638;50.050;21.124;2024-01-30T04:43:35;7.60;;;4.80;;
77524;SDS011;66638;50.050;21.124;2024-01-30T04:46:21;14.60;;;8.30;;
77524;SDS011;66638;50.050;21.124;2024-01-30T04:49:07;12.70;;;6.30;;
77524;SDS011;66638;50.050;21.124;2024-01-30T04:51:53;11.80;;;7.10;;
77524;SDS011;66638;50.050;21.124;2024-01-30T04:54:39;24.70;;;13.40;;
77524;SDS011;66638;50.050;21.124;2024-01-30T04:57:25;10.90;;;7.70;;
77524;SDS011;66638;50.050;21.124;2024-01-30T05:00:11;12.20;;;6.10;;
77524;SDS011;66638;50.050;21.124;2024-01-30T05:02:58;9.80;;;5.90;;
77524;SDS011;66638;50.050;21.124;2024-01-30T05:05:43;9.40;;;5.50;;
77524;SDS011;66638;50.050;21.124;2024-01-30T05:08:29;9.00;;;5.70;;
77524;SDS011;66638;50.050;21.124;2024-01-30T05:11:15;10.10;;;6.40;;
77524;SDS011;66638;50.050;21.124;2024-01-30T05:14:00;8.80;;;4.70;;
77524;SDS011;66638;50.050;21.124;2024-01-30T05:16:46;9.80;;;5.30;;
77524;SDS011;66638;50.050;21.124;2024-01-30T05:19:33;10.00;;;5.80;;
77524;SDS011;66638;50.050;21.124;2024-01-30T05:22:18;14.20;;;7.50;;
77524;SDS011;66638;50.050;21.124;2024-01-30T05:25:04;10.60;;;6.70;;
77524;SDS011;66638;50.050;21.124;2024-01-30T05:27:51;10.50;;;6.50;;
77524;SDS011;66638;50.050;21.124;2024-01-30T05:30:37;11.00;;;6.80;;
77524;SDS011;66638;50.050;21.124;2024-01-30T05:33:22;10.80;;;6.10;;
77524;SDS011;66638;50.050;21.124;2024-01-30T05:36:11;12.10;;;6.70;;
77524;SDS011;66638;50.050;21.124;2024-01-30T05:38:58;13.50;;;6.50;;
77524;SDS011;66638;50.050;21.124;2024-01-30T05:41:43;11.60;;;6.60;;
77524;SDS011;66638;50.050;21.124;2024-01-30T05:44:29;13.70;;;7.10;;
77524;SDS011;66638;50.050;21.124;2024-01-30T05:47:16;12.30;;;6.50;;
77524;SDS011;66638;50.050;21.124;2024-01-30T05:50:02;33.30;;;14.90;;
77524;SDS011;66638;50.050;21.124;2024-01-30T05:52:49;11.30;;;6.80;;
77524;SDS011;66638;50.050;21.124;2024-01-30T05:55:34;12.30;;;7.40;;
77524;SDS011;66638;50.050;21.124;2024-01-30T05:58:20;17.00;;;8.90;;
77524;SDS011;66638;50.050;21.124;2024-01-30T06:01:07;20.60;;;9.10;;
77524;SDS011;66638;50.050;21.124;2024-01-30T06:03:54;38.30;;;17.60;;
77524;SDS011;66638;50.050;21.124;2024-01-30T06:06:41;30.10;;;22.80;;
77524;SDS011;66638;50.050;21.124;2024-01-30T06:09:26;21.00;;;8.90;;
77524;SDS011;66638;50.050;21.124;2024-01-30T06:12:12;34.80;;;15.30;;
77524;SDS011;66638;50.050;21.124;2024-01-30T06:14:57;35.60;;;14.90;;
77524;SDS011;66638;50.050;21.124;2024-01-30T06:17:43;16.70;;;9.00;;
77524;SDS011;66638;50.050;21.124;2024-01-30T06:20:29;16.90;;;9.80;;
77524;SDS011;66638;50.050;21.124;2024-01-30T06:23:15;15.50;;;12.10;;
77524;SDS011;66638;50.050;21.124;2024-01-30T06:26:01;19.10;;;9.70;;
77524;SDS011;66638;50.050;21.124;2024-01-30T06:28:46;25.40;;;11.70;;
77524;SDS011;66638;50.050;21.124;2024-01-30T06:31:32;36.60;;;15.30;;
77524;SDS011;66638;50.050;21.124;2024-01-30T06:34:18;38.60;;;16.30;;
77524;SDS011;66638;50.050;21.124;2024-01-30T06:37:04;13.00;;;7.80;;
77524;SDS011;66638;50.050;21.124;2024-01-30T06:39:49;13.60;;;8.70;;
77524;SDS011;66638;50.050;21.124;2024-01-30T06:42:35;12.20;;;7.60;;
77524;SDS011;66638;50.050;21.124;2024-01-30T06:45:21;9.00;;;6.40;;
77524;SDS011;66638;50.050;21.124;2024-01-30T06:48:07;11.70;;;7.80;;
77524;SDS011;66638;50.050;21.124;2024-01-30T06:50:53;11.70;;;9.00;;
77524;SDS011;66638;50.050;21.124;2024-01-30T06:53:39;11.30;;;8.90;;
77524;SDS011;66638;50.050;21.124;2024-01-30T06:56:25;9.80;;;7.60;;
77524;SDS011;66638;50.050;21.124;2024-01-30T06:59:11;9.90;;;7.10;;
77524;SDS011;66638;50.050;21.124;2024-01-30T07:01:56;12.00;;;7.40;;
77524;SDS011;66638;50.050;21.124;2024-01-30T07:04:42;10.80;;;7.80;;
77524;SDS011;66638;50.050;21.124;2024-01-30T07:07:28;10.60;;;7.30;;
77524;SDS011;66638;50.050;21.124;2024-01-30T07:10:14;11.90;;;7.90;;
77524;SDS011;66638;50.050;21.124;2024-01-30T07:13:00;15.30;;;10.10;;
77524;SDS011;66638;50.050;21.124;2024-01-30T07:15:47;12.50;;;8.10;;
77524;SDS011;66638;50.050;21.124;2024-01-30T07:18:33;13.60;;;10.70;;
77524;SDS011;66638;50.050;21.124;2024-01-30T07:21:18;12.70;;;9.60;;
77524;SDS011;66638;50.050;21.124;2024-01-30T07:24:07;9.20;;;8.20;;
77524;SDS011;66638;50.050;21.124;2024-01-30T07:26:53;16.50;;;12.60;;
77524;SDS011;66638;50.050;21.124;2024-01-30T07:29:38;19.90;;;14.10;;
77524;SDS011;66638;50.050;21.124;2024-01-30T07:32:24;21.90;;;15.10;;
77524;SDS011;66638;50.050;21.124;2024-01-30T07:37:56;9.70;;;8.10;;
77524;SDS011;66638;50.050;21.124;2024-01-30T07:40:43;9.50;;;7.90;;
77524;SDS011;66638;50.050;21.124;2024-01-30T07:43:29;10.40;;;9.10;;
77524;SDS011;66638;50.050;21.124;2024-01-30T07:46:15;10.80;;;9.00;;
77524;SDS011;66638;50.050;21.124;2024-01-30T07:49:01;11.60;;;9.30;;
77524;SDS011;66638;50.050;21.124;2024-01-30T07:51:47;8.70;;;7.80;;
77524;SDS011;66638;50.050;21.124;2024-01-30T07:54:34;8.60;;;7.70;;
77524;SDS011;66638;50.050;21.124;2024-01-30T07:57:19;9.00;;;7.80;;
77524;SDS011;66638;50.050;21.124;2024-01-30T08:00:05;8.50;;;7.60;;
77524;SDS011;66638;50.050;21.124;2024-01-30T08:02:54;9.70;;;8.30;;
77524;SDS011;66638;50.050;21.124;2024-01-30T08:05:41;9.10;;;7.20;;
77524;SDS011;66638;50.050;21.124;2024-01-30T08:08:27;8.70;;;7.80;;
77524;SDS011;66638;50.050;21.124;2024-01-30T08:11:14;9.40;;;8.40;;
77524;SDS011;66638;50.050;21.124;2024-01-30T08:14:00;9.30;;;7.90;;
77524;SDS011;66638;50.050;21.124;2024-01-30T08:19:31;9.20;;;8.20;;
77524;SDS011;66638;50.050;21.124;2024-01-30T08:22:17;10.50;;;8.80;;
77524;SDS011;66638;50.050;21.124;2024-01-30T08:25:03;10.40;;;7.40;;
77524;SDS011;66638;50.050;21.124;2024-01-30T08:27:50;7.90;;;7.10;;
77524;SDS011;66638;50.050;21.124;2024-01-30T08:30:35;9.10;;;8.10;;
77524;SDS011;66638;50.050;21.124;2024-01-30T08:33:21;8.90;;;7.60;;
77524;SDS011;66638;50.050;21.124;2024-01-30T08:38:52;8.30;;;7.50;;
77524;SDS011;66638;50.050;21.124;2024-01-30T08:41:39;8.90;;;7.80;;
77524;SDS011;66638;50.050;21.124;2024-01-30T08:47:10;8.70;;;7.80;;
77524;SDS011;66638;50.050;21.124;2024-01-30T08:49:56;8.30;;;7.40;;
77524;SDS011;66638;50.050;21.124;2024-01-30T08:52:42;7.80;;;6.80;;
77524;SDS011;66638;50.050;21.124;2024-01-30T08:55:28;7.50;;;6.70;;
77524;SDS011;66638;50.050;21.124;2024-01-30T08:58:14;8.40;;;7.10;;
77524;SDS011;66638;50.050;21.124;2024-01-30T09:01:01;8.50;;;7.40;;
77524;SDS011;66638;50.050;21.124;2024-01-30T09:03:49;8.40;;;7.50;;
77524;SDS011;66638;50.050;21.124;2024-01-30T09:06:35;9.00;;;8.10;;
77524;SDS011;66638;50.050;21.124;2024-01-30T09:09:21;7.80;;;7.00;;
77524;SDS011;66638;50.050;21.124;2024-01-30T09:12:07;9.30;;;7.50;;
77524;SDS011;66638;50.050;21.124;2024-01-30T09:14:55;8.10;;;7.30;;
77524;SDS011;66638;50.050;21.124;2024-01-30T09:17:41;8.80;;;7.90;;
77524;SDS011;66638;50.050;21.124;2024-01-30T09:20:27;8.90;;;7.40;;
77524;SDS011;66638;50.050;21.124;2024-01-30T09:23:13;8.90;;;7.50;;
77524;SDS011;66638;50.050;21.124;2024-01-30T09:25:58;7.50;;;6.50;;
77524;SDS011;66638;50.050;21.124;2024-01-30T09:28:45;8.00;;;7.20;;
77524;SDS011;66638;50.050;21.124;2024-01-30T09:31:31;10.40;;;7.60;;
77524;SDS011;66638;50.050;21.124;2024-01-30T09:34:17;8.60;;;7.70;;
77524;SDS011;66638;50.050;21.124;2024-01-30T09:37:03;8.40;;;7.10;;
77524;SDS011;66638;50.050;21.124;2024-01-30T09:39:49;7.90;;;7.10;;
77524;SDS011;66638;50.050;21.124;2024-01-30T09:42:35;8.80;;;7.90;;
77524;SDS011;66638;50.050;21.124;2024-01-30T09:45:23;9.30;;;8.40;;
77524;SDS011;66638;50.050;21.124;2024-01-30T09:48:10;8.30;;;7.40;;
77524;SDS011;66638;50.050;21.124;2024-01-30T09:50:56;7.30;;;6.50;;
77524;SDS011;66638;50.050;21.124;2024-01-30T09:53:43;9.00;;;8.10;;
77524;SDS011;66638;50.050;21.124;2024-01-30T09:56:32;7.90;;;7.20;;
77524;SDS011;66638;50.050;21.124;2024-01-30T09:59:18;9.30;;;8.30;;
77524;SDS011;66638;50.050;21.124;2024-01-30T10:02:04;9.30;;;7.10;;
77524;SDS011;66638;50.050;21.124;2024-01-30T10:04:50;10.70;;;8.50;;
77524;SDS011;66638;50.050;21.124;2024-01-30T10:07:37;8.20;;;7.40;;
77524;SDS011;66638;50.050;21.124;2024-01-30T10:10:23;9.50;;;8.60;;
77524;SDS011;66638;50.050;21.124;2024-01-30T10:13:09;9.80;;;8.80;;
77524;SDS011;66638;50.050;21.124;2024-01-30T10:15:55;9.10;;;8.20;;
77524;SDS011;66638;50.050;21.124;2024-01-30T10:18:43;8.30;;;7.40;;
77524;SDS011;66638;50.050;21.124;2024-01-30T10:21:32;9.10;;;8.00;;
77524;SDS011;66638;50.050;21.124;2024-01-30T10:24:18;8.50;;;7.60;;
77524;SDS011;66638;50.050;21.124;2024-01-30T10:27:05;10.20;;;9.10;;
77524;SDS011;66638;50.050;21.124;2024-01-30T10:29:51;9.10;;;8.20;;
77524;SDS011;66638;50.050;21.124;2024-01-30T10:32:38;8.60;;;7.70;;
77524;SDS011;66638;50.050;21.124;2024-01-30T10:35:24;9.10;;;8.20;;
77524;SDS011;66638;50.050;21.124;2024-01-30T10:38:09;11.70;;;9.20;;
77524;SDS011;66638;50.050;21.124;2024-01-30T10:40:56;7.90;;;7.00;;
77524;SDS011;66638;50.050;21.124;2024-01-30T10:43:43;8.00;;;7.20;;
77524;SDS011;66638;50.050;21.124;2024-01-30T10:46:39;7.80;;;6.80;;
77524;SDS011;66638;50.050;21.124;2024-01-30T10:49:27;8.80;;;6.90;;
77524;SDS011;66638;50.050;21.124;2024-01-30T10:52:13;8.60;;;7.70;;
77524;SDS011;66638;50.050;21.124;2024-01-30T10:54:59;8.10;;;7.30;;
77524;SDS011;66638;50.050;21.124;2024-01-30T10:57:46;7.60;;;6.70;;
77524;SDS011;66638;50.050;21.124;2024-01-30T11:00:31;8.30;;;6.60;;
77524;SDS011;66638;50.050;21.124;2024-01-30T11:03:20;8.40;;;7.60;;
77524;SDS011;66638;50.050;21.124;2024-01-30T11:06:10;7.20;;;6.50;;
77524;SDS011;66638;50.050;21.124;2024-01-30T11:09:03;9.60;;;8.10;;
77524;SDS011;66638;50.050;21.124;2024-01-30T11:11:59;9.60;;;8.00;;
77524;SDS011;66638;50.050;21.124;2024-01-30T11:14:48;8.20;;;7.40;;
77524;SDS011;66638;50.050;21.124;2024-01-30T11:17:50;8.30;;;7.50;;
77524;SDS011;66638;50.050;21.124;2024-01-30T11:20:39;8.20;;;6.90;;
77524;SDS011;66638;50.050;21.124;2024-01-30T11:23:33;8.40;;;7.60;;
77524;SDS011;66638;50.050;21.124;2024-01-30T11:26:23;8.90;;;7.80;;
77524;SDS011;66638;50.050;21.124;2024-01-30T11:29:13;8.60;;;7.60;;
77524;SDS011;66638;50.050;21.124;2024-01-30T11:32:00;7.90;;;7.00;;
77524;SDS011;66638;50.050;21.124;2024-01-30T11:34:47;7.30;;;6.30;;
77524;SDS011;66638;50.050;21.124;2024-01-30T11:37:33;8.10;;;7.20;;
77524;SDS011;66638;50.050;21.124;2024-01-30T11:40:23;9.60;;;7.60;;
77524;SDS011;66638;50.050;21.124;2024-01-30T11:43:11;8.30;;;7.40;;
77524;SDS011;66638;50.050;21.124;2024-01-30T11:45:57;8.80;;;7.50;;
77524;SDS011;66638;50.050;21.124;2024-01-30T11:48:43;9.40;;;7.40;;
77524;SDS011;66638;50.050;21.124;2024-01-30T11:51:30;9.30;;;7.90;;
77524;SDS011;66638;50.050;21.124;2024-01-30T11:54:16;7.90;;;7.10;;
77524;SDS011;66638;50.050;21.124;2024-01-30T11:57:02;8.80;;;7.90;;
77524;SDS011;66638;50.050;21.124;2024-01-30T11:59:49;9.20;;;6.80;;
77524;SDS011;66638;50.050;21.124;2024-01-30T12:02:39;9.30;;;7.30;;
77524;SDS011;66638;50.050;21.124;2024-01-30T12:05:25;8.50;;;7.60;;
77524;SDS011;66638;50.050;21.124;2024-01-30T12:08:15;9.00;;;8.00;;
77524;SDS011;66638;50.050;21.124;2024-01-30T12:11:02;8.30;;;6.90;;
77524;SDS011;66638;50.050;21.124;2024-01-30T12:13:51;9.40;;;7.80;;
77524;SDS011;66638;50.050;21.124;2024-01-30T12:16:37;8.10;;;7.10;;
77524;SDS011;66638;50.050;21.124;2024-01-30T12:19:24;10.80;;;9.60;;
77524;SDS011;66638;50.050;21.124;2024-01-30T12:22:10;10.00;;;8.40;;
77524;SDS011;66638;50.050;21.124;2024-01-30T12:24:56;10.50;;;7.20;;
77524;SDS011;66638;50.050;21.124;2024-01-30T12:27:43;9.30;;;7.50;;
77524;SDS011;66638;50.050;21.124;2024-01-30T12:30:30;9.70;;;8.00;;
77524;SDS011;66638;50.050;21.124;2024-01-30T12:33:16;9.30;;;8.00;;
77524;SDS011;66638;50.050;21.124;2024-01-30T12:36:06;9.80;;;8.20;;
77524;SDS011;66638;50.050;21.124;2024-01-30T12:38:53;9.80;;;7.50;;
77524;SDS011;66638;50.050;21.124;2024-01-30T12:41:39;7.90;;;7.10;;
77524;SDS011;66638;50.050;21.124;2024-01-30T12:44:24;10.70;;;7.90;;
77524;SDS011;66638;50.050;21.124;2024-01-30T12:47:10;9.00;;;7.20;;
77524;SDS011;66638;50.050;21.124;2024-01-30T12:49:57;9.10;;;7.70;;
77524;SDS011;66638;50.050;21.124;2024-01-30T12:52:43;10.10;;;7.60;;
77524;SDS011;66638;50.050;21.124;2024-01-30T12:55:28;9.80;;;7.10;;
77524;SDS011;66638;50.050;21.124;2024-01-30T12:58:16;9.20;;;7.80;;
77524;SDS011;66638;50.050;21.124;2024-01-30T13:01:01;13.00;;;10.20;;
77524;SDS011;66638;50.050;21.124;2024-01-30T13:03:48;10.60;;;7.40;;
77524;SDS011;66638;50.050;21.124;2024-01-30T13:06:34;9.50;;;7.50;;
77524;SDS011;66638;50.050;21.124;2024-01-30T13:09:20;10.60;;;8.30;;
77524;SDS011;66638;50.050;21.124;2024-01-30T13:12:06;10.90;;;8.30;;
77524;SDS011;66638;50.050;21.124;2024-01-30T13:14:52;11.10;;;8.50;;
77524;SDS011;66638;50.050;21.124;2024-01-30T13:20:24;9.80;;;7.80;;
77524;SDS011;66638;50.050;21.124;2024-01-30T13:23:10;9.40;;;6.70;;
77524;SDS011;66638;50.050;21.124;2024-01-30T13:25:56;9.70;;;7.70;;
77524;SDS011;66638;50.050;21.124;2024-01-30T13:28:44;8.90;;;7.40;;
77524;SDS011;66638;50.050;21.124;2024-01-30T13:31:30;9.20;;;7.40;;
77524;SDS011;66638;50.050;21.124;2024-01-30T13:34:16;13.50;;;8.70;;
77524;SDS011;66638;50.050;21.124;2024-01-30T13:37:02;10.70;;;7.50;;
77524;SDS011;66638;50.050;21.124;2024-01-30T13:39:48;10.00;;;7.50;;
77524;SDS011;66638;50.050;21.124;2024-01-30T13:42:34;10.80;;;9.10;;
77524;SDS011;66638;50.050;21.124;2024-01-30T13:45:21;13.60;;;10.00;;
77524;SDS011;66638;50.050;21.124;2024-01-30T13:48:06;9.70;;;7.20;;
77524;SDS011;66638;50.050;21.124;2024-01-30T13:50:53;10.90;;;7.80;;
77524;SDS011;66638;50.050;21.124;2024-01-30T13:53:39;9.70;;;6.70;;
77524;SDS011;66638;50.050;21.124;2024-01-30T13:56:25;9.50;;;7.20;;
77524;SDS011;66638;50.050;21.124;2024-01-30T13:59:12;9.80;;;7.50;;
77524;SDS011;66638;50.050;21.124;2024-01-30T14:01:58;10.80;;;7.20;;
77524;SDS011;66638;50.050;21.124;2024-01-30T14:04:43;10.90;;;7.50;;
77524;SDS011;66638;50.050;21.124;2024-01-30T14:07:29;9.80;;;6.90;;
77524;SDS011;66638;50.050;21.124;2024-01-30T14:10:16;10.40;;;6.00;;
77524;SDS011;66638;50.050;21.124;2024-01-30T14:13:02;11.20;;;6.80;;
77524;SDS011;66638;50.050;21.124;2024-01-30T14:15:48;9.60;;;6.30;;
77524;SDS011;66638;50.050;21.124;2024-01-30T14:21:20;31.90;;;18.20;;
77524;SDS011;66638;50.050;21.124;2024-01-30T14:24:06;12.20;;;7.90;;
77524;SDS011;66638;50.050;21.124;2024-01-30T14:26:52;11.50;;;8.50;;
77524;SDS011;66638;50.050;21.124;2024-01-30T14:29:38;11.90;;;8.00;;
77524;SDS011;66638;50.050;21.124;2024-01-30T14:32:24;11.40;;;8.00;;
77524;SDS011;66638;50.050;21.124;2024-01-30T14:35:10;12.80;;;9.10;;
77524;SDS011;66638;50.050;21.124;2024-01-30T14:37:56;10.70;;;8.30;;
77524;SDS011;66638;50.050;21.124;2024-01-30T14:40:42;11.40;;;7.80;;
77524;SDS011;66638;50.050;21.124;2024-01-30T14:43:28;11.80;;;7.90;;
77524;SDS011;66638;50.050;21.124;2024-01-30T14:46:14;14.10;;;10.40;;
77524;SDS011;66638;50.050;21.124;2024-01-30T14:49:00;13.20;;;9.40;;
77524;SDS011;66638;50.050;21.124;2024-01-30T14:51:48;12.60;;;7.40;;
77524;SDS011;66638;50.050;21.124;2024-01-30T14:54:34;13.00;;;6.40;;
77524;SDS011;66638;50.050;21.124;2024-01-30T14:57:20;12.80;;;9.30;;
77524;SDS011;66638;50.050;21.124;2024-01-30T15:00:06;12.80;;;7.60;;
77524;SDS011;66638;50.050;21.124;2024-01-30T15:02:53;15.80;;;8.60;;
77524;SDS011;66638;50.050;21.124;2024-01-30T15:05:39;17.60;;;11.70;;
77524;SDS011;66638;50.050;21.124;2024-01-30T15:08:25;20.60;;;11.50;;
77524;SDS011;66638;50.050;21.124;2024-01-30T15:11:10;16.60;;;10.30;;
77524;SDS011;66638;50.050;21.124;2024-01-30T15:13:56;18.10;;;10.00;;
77524;SDS011;66638;50.050;21.124;2024-01-30T15:16:42;18.60;;;11.20;;
77524;SDS011;66638;50.050;21.124;2024-01-30T15:19:27;21.10;;;10.70;;
77524;SDS011;66638;50.050;21.124;2024-01-30T15:22:14;21.00;;;10.70;;
77524;SDS011;66638;50.050;21.124;2024-01-30T15:24:59;15.40;;;8.70;;
77524;SDS011;66638;50.050;21.124;2024-01-30T15:27:45;13.40;;;8.10;;
77524;SDS011;66638;50.050;21.124;2024-01-30T15:30:31;16.50;;;8.80;;
77524;SDS011;66638;50.050;21.124;2024-01-30T15:33:17;14.60;;;8.50;;
77524;SDS011;66638;50.050;21.124;2024-01-30T15:36:04;21.00;;;9.90;;
77524;SDS011;66638;50.050;21.124;2024-01-30T15:38:51;13.80;;;8.50;;
77524;SDS011;66638;50.050;21.124;2024-01-30T15:41:36;27.70;;;13.50;;
77524;SDS011;66638;50.050;21.124;2024-01-30T15:44:22;14.60;;;8.30;;
77524;SDS011;66638;50.050;21.124;2024-01-30T15:47:08;41.30;;;24.30;;
77524;SDS011;66638;50.050;21.124;2024-01-30T15:49:55;16.50;;;10.20;;
77524;SDS011;66638;50.050;21.124;2024-01-30T15:52:41;18.60;;;12.70;;
77524;SDS011;66638;50.050;21.124;2024-01-30T15:55:27;23.30;;;14.90;;
77524;SDS011;66638;50.050;21.124;2024-01-30T15:58:13;13.10;;;9.10;;
77524;SDS011;66638;50.050;21.124;2024-01-30T16:01:03;15.90;;;10.40;;
77524;SDS011;66638;50.050;21.124;2024-01-30T16:03:49;11.60;;;7.20;;
77524;SDS011;66638;50.050;21.124;2024-01-30T16:06:35;14.20;;;7.60;;
77524;SDS011;66638;50.050;21.124;2024-01-30T16:09:25;16.20;;;8.90;;
77524;SDS011;66638;50.050;21.124;2024-01-30T16:12:11;27.60;;;12.60;;
77524;SDS011;66638;50.050;21.124;2024-01-30T16:14:57;16.90;;;9.40;;
77524;SDS011;66638;50.050;21.124;2024-01-30T16:17:43;14.00;;;9.40;;
77524;SDS011;66638;50.050;21.124;2024-01-30T16:20:29;18.50;;;10.00;;
77524;SDS011;66638;50.050;21.124;2024-01-30T16:23:15;10.90;;;6.60;;
77524;SDS011;66638;50.050;21.124;2024-01-30T16:26:02;15.80;;;10.50;;
77524;SDS011;66638;50.050;21.124;2024-01-30T16:28:48;13.90;;;8.70;;
77524;SDS011;66638;50.050;21.124;2024-01-30T16:31:34;11.40;;;5.60;;
77524;SDS011;66638;50.050;21.124;2024-01-30T16:34:20;13.30;;;8.00;;
77524;SDS011;66638;50.050;21.124;2024-01-30T16:37:06;13.20;;;6.60;;
77524;SDS011;66638;50.050;21.124;2024-01-30T16:39:52;13.60;;;7.20;;